Decoded Metar for USSS (SVERDLOVSK in RUSSIA) (IATA:SVX) | Meteo·Mobile Aviation Weather
aviador You're here:

USSS Decoded Metar

SVERDLOVSK in RUSSIA
Report Time2018-08-21 22:00:00
UTC Time2018-08-21 22:19:43
Flight Rules lifr LIFR
Wind110° at 2 kt
W.Decomp.*RWY 08: 1.9 kt HW 0.6 kt RCW
W.Rank110° ranks 12
Current wind is below 110° avg. (5.4)
Visibility8000 m
Phenomena:Fog
Clouds:Scattered 049 Hf
Ceiling200 ft
Temp11°C (ISA -2)
Dew Point11°C (100% RH)
AAT10.6°C
QNH1008 hPa
Density Alt817 ft
Elevation764 ft
Report Wrong Elevation
Raw Report
USSS 212200Z 11001MPS 8000 SCT049 11/11 Q1008 R08L/010060
R08R/010060 TEMPO 0300 FG VV002 RMK QFE736/0982=

Extra information for USSS:More info

Metar Taf Metar & Taf Last 4 Metars F.Rules Stats Wind Profile Meteogram Temp Stats Airport Information Weather charts Add Link Nearby VenuesMetar ALERT Operation Metar Decoded Social comments